createdAt,value
2023-02-05T00:01:29.939Z,14.20
2023-02-05T00:03:56.597Z,14.40
2023-02-05T00:06:23.580Z,14.77
2023-02-05T00:08:50.246Z,14.87
2023-02-05T00:11:17.101Z,14.70
2023-02-05T00:13:44.361Z,14.97
2023-02-05T00:16:19.931Z,14.90
2023-02-05T00:18:47.443Z,14.57
2023-02-05T00:21:15.592Z,14.90
2023-02-05T00:23:42.518Z,14.77
2023-02-05T00:26:10.649Z,14.13
2023-02-05T00:28:38.058Z,13.60
2023-02-05T00:31:10.487Z,13.80
2023-02-05T00:33:37.555Z,14.30
2023-02-05T00:36:04.817Z,15.27
2023-02-05T00:38:31.836Z,15.07
2023-02-05T00:40:58.584Z,14.40
2023-02-05T00:43:25.225Z,13.83
2023-02-05T00:45:51.903Z,13.90
2023-02-05T00:48:18.554Z,14.20
2023-02-05T00:50:45.314Z,15.00
2023-02-05T00:53:11.933Z,14.00
2023-02-05T00:55:38.547Z,14.37
2023-02-05T00:58:05.197Z,14.30
2023-02-05T01:00:32.753Z,13.37
2023-02-05T01:02:59.708Z,15.10
2023-02-05T01:05:26.748Z,14.83
2023-02-05T01:07:53.530Z,15.33
2023-02-05T01:10:20.193Z,15.10
2023-02-05T01:12:49.310Z,15.43
2023-02-05T01:15:16.474Z,15.07
2023-02-05T01:17:43.239Z,14.90
2023-02-05T01:20:11.648Z,14.90
2023-02-05T01:22:38.553Z,16.17
2023-02-05T01:25:05.790Z,17.50
2023-02-05T01:27:33.648Z,17.27
2023-02-05T01:30:00.387Z,17.70
2023-02-05T01:32:28.863Z,17.03
2023-02-05T01:34:55.968Z,15.77
2023-02-05T01:37:23.155Z,15.30
2023-02-05T01:39:49.780Z,16.27
2023-02-05T01:42:20.939Z,15.80
2023-02-05T01:45:21.999Z,14.97
2023-02-05T01:47:53.775Z,16.03
2023-02-05T01:50:32.436Z,16.03
2023-02-05T01:53:03.016Z,17.50
2023-02-05T01:55:30.784Z,17.03
2023-02-05T01:57:59.393Z,16.90
2023-02-05T02:00:26.222Z,16.90
2023-02-05T02:02:53.726Z,15.93
2023-02-05T02:05:20.435Z,16.60
2023-02-05T02:07:47.094Z,17.60
2023-02-05T02:10:15.976Z,17.73
2023-02-05T02:12:45.007Z,18.30
2023-02-05T02:15:19.183Z,17.37
2023-02-05T02:17:50.786Z,16.50
2023-02-05T02:20:36.249Z,17.17
2023-02-05T02:23:35.350Z,16.70
2023-02-05T02:26:42.984Z,16.40
2023-02-05T02:29:19.621Z,14.53
2023-02-05T02:31:57.195Z,15.30
2023-02-05T02:34:45.507Z,16.67
2023-02-05T02:37:34.366Z,15.67
2023-02-05T02:40:09.519Z,15.87
2023-02-05T02:42:42.483Z,14.33
2023-02-05T02:45:12.276Z,13.50
2023-02-05T02:47:45.195Z,14.83
2023-02-05T02:50:33.032Z,15.87
2023-02-05T02:53:08.487Z,15.73
2023-02-05T02:55:38.933Z,14.30
2023-02-05T02:58:11.147Z,14.67
2023-02-05T03:00:39.557Z,14.83
2023-02-05T03:03:09.586Z,14.07
2023-02-05T03:05:37.830Z,14.17
2023-02-05T03:08:09.703Z,14.70
2023-02-05T03:10:41.087Z,13.67
2023-02-05T03:13:10.245Z,14.53
2023-02-05T03:15:41.126Z,13.70
2023-02-05T03:18:07.900Z,15.30
2023-02-05T03:20:50.802Z,13.83
2023-02-05T03:23:18.020Z,13.80
2023-02-05T03:25:44.661Z,14.27
2023-02-05T03:28:12.731Z,14.10
2023-02-05T03:30:58.938Z,14.67
2023-02-05T03:33:51.621Z,14.20
2023-02-05T03:36:43.090Z,14.17
2023-02-05T03:39:28.089Z,14.10
2023-02-05T03:42:22.765Z,15.10
2023-02-05T03:44:55.325Z,13.33
2023-02-05T03:47:37.317Z,13.53
2023-02-05T03:50:23.440Z,14.03
2023-02-05T03:53:14.704Z,15.10
2023-02-05T03:56:01.180Z,14.03
2023-02-05T03:58:43.017Z,13.97
2023-02-05T04:01:11.763Z,13.23
2023-02-05T04:03:39.352Z,13.27
2023-02-05T04:06:07.167Z,13.07
2023-02-05T04:08:33.837Z,13.87
2023-02-05T04:11:00.483Z,14.67
2023-02-05T04:13:27.143Z,15.27
2023-02-05T04:15:53.826Z,15.50
2023-02-05T04:18:20.542Z,15.93
2023-02-05T04:20:47.269Z,15.73
2023-02-05T04:23:13.905Z,15.33
2023-02-05T04:25:40.828Z,15.60
2023-02-05T04:28:07.931Z,15.50
2023-02-05T04:30:34.667Z,16.80
2023-02-05T04:33:01.378Z,15.83
2023-02-05T04:35:28.022Z,15.23
2023-02-05T04:37:54.671Z,16.50
2023-02-05T04:40:21.362Z,16.33
2023-02-05T04:42:48.012Z,16.27
2023-02-05T04:45:14.814Z,17.00
2023-02-05T04:47:41.522Z,16.10
2023-02-05T04:50:08.526Z,14.77
2023-02-05T04:52:35.188Z,14.87
2023-02-05T04:55:01.905Z,16.20
2023-02-05T04:57:31.041Z,15.77
2023-02-05T04:59:57.969Z,14.87
2023-02-05T05:02:24.870Z,15.30
2023-02-05T05:04:51.569Z,15.43
2023-02-05T05:07:18.198Z,15.87
2023-02-05T05:09:44.894Z,15.37
2023-02-05T05:12:19.880Z,15.30
2023-02-05T05:14:46.623Z,16.23
2023-02-05T05:17:14.742Z,14.53
2023-02-05T05:19:41.618Z,15.10
2023-02-05T05:22:08.379Z,16.17
2023-02-05T05:24:35.073Z,15.70
2023-02-05T05:27:01.810Z,16.83
2023-02-05T05:29:28.596Z,15.50
2023-02-05T05:31:55.405Z,16.43
2023-02-05T05:34:22.230Z,16.23
2023-02-05T05:36:48.964Z,15.30
2023-02-05T05:39:34.710Z,15.50
2023-02-05T05:42:20.268Z,15.50
2023-02-05T05:44:51.996Z,14.10
2023-02-05T05:47:19.614Z,13.93
2023-02-05T05:49:46.343Z,14.73
2023-02-05T05:52:13.516Z,14.70
2023-02-05T05:54:40.553Z,16.07
2023-02-05T05:57:08.239Z,15.60
2023-02-05T05:59:35.036Z,14.53
2023-02-05T06:02:03.427Z,15.57
2023-02-05T06:04:30.418Z,15.00
2023-02-05T06:06:57.227Z,15.27
2023-02-05T06:09:24.052Z,15.70
2023-02-05T06:11:51.346Z,16.23
2023-02-05T06:14:18.693Z,14.97
2023-02-05T06:16:45.424Z,14.87
2023-02-05T06:19:12.123Z,14.67
2023-02-05T06:21:38.967Z,14.60
2023-02-05T06:24:06.774Z,15.37
2023-02-05T06:26:33.610Z,14.50
2023-02-05T06:29:03.346Z,13.57
2023-02-05T06:31:33.926Z,14.47
2023-02-05T06:34:01.909Z,15.60
2023-02-05T06:36:34.649Z,16.20
2023-02-05T06:39:02.046Z,18.00
2023-02-05T06:41:29.736Z,15.53
2023-02-05T06:43:57.579Z,16.10
2023-02-05T06:46:27.351Z,16.07
2023-02-05T06:48:54.469Z,15.73
2023-02-05T06:51:22.048Z,19.30
2023-02-05T06:53:49.261Z,17.80
2023-02-05T06:56:16.550Z,17.07
2023-02-05T06:58:43.642Z,16.20
2023-02-05T07:01:13.761Z,16.17
2023-02-05T07:03:41.065Z,16.40
2023-02-05T07:06:08.328Z,16.37
2023-02-05T07:08:35.986Z,16.47
2023-02-05T07:11:03.498Z,17.13
2023-02-05T07:13:30.880Z,16.63
2023-02-05T07:15:58.057Z,17.53
2023-02-05T07:18:24.935Z,16.23
2023-02-05T07:20:52.287Z,18.40
2023-02-05T07:23:20.816Z,16.87
2023-02-05T07:25:47.666Z,15.77
2023-02-05T07:28:14.543Z,17.50
2023-02-05T07:30:41.908Z,17.50
2023-02-05T07:33:09.905Z,19.20
2023-02-05T07:35:38.424Z,17.07
2023-02-05T07:38:06.052Z,16.67
2023-02-05T07:40:33.402Z,17.90
2023-02-05T07:43:00.668Z,19.40
2023-02-05T07:45:30.028Z,18.37
2023-02-05T07:47:57.474Z,21.47
2023-02-05T07:50:29.762Z,20.27
2023-02-05T07:52:57.470Z,19.73
2023-02-05T07:55:24.978Z,18.73
2023-02-05T07:57:54.017Z,21.57
2023-02-05T08:00:21.787Z,17.90
2023-02-05T08:02:48.803Z,21.07
2023-02-05T08:05:15.877Z,19.30
2023-02-05T08:07:42.821Z,19.10
2023-02-05T08:10:13.938Z,20.07
2023-02-05T08:12:41.389Z,19.50
2023-02-05T08:15:09.141Z,19.60
2023-02-05T08:17:36.038Z,19.17
2023-02-05T08:20:07.607Z,19.03
2023-02-05T08:22:36.171Z,20.03
2023-02-05T08:25:04.193Z,20.40
2023-02-05T08:27:33.108Z,22.10
2023-02-05T08:30:02.274Z,20.17
2023-02-05T08:32:32.692Z,22.47
2023-02-05T08:35:01.665Z,19.87
2023-02-05T08:37:28.627Z,18.80
2023-02-05T08:39:55.457Z,20.33
2023-02-05T08:42:22.406Z,21.70
2023-02-05T08:44:49.246Z,20.93
2023-02-05T08:47:19.855Z,22.13
2023-02-05T08:49:47.160Z,22.50
2023-02-05T08:52:14.473Z,23.07
2023-02-05T08:54:42.041Z,23.33
2023-02-05T08:57:10.022Z,26.70
2023-02-05T08:59:36.846Z,24.90
2023-02-05T09:02:06.937Z,24.73
2023-02-05T09:04:34.061Z,26.03
2023-02-05T09:07:00.967Z,33.47
2023-02-05T09:09:28.124Z,30.00
2023-02-05T09:11:55.518Z,30.20
2023-02-05T09:14:22.630Z,33.83
2023-02-05T09:16:53.783Z,28.07
2023-02-05T09:19:21.342Z,27.47
2023-02-05T09:21:54.148Z,26.20
2023-02-05T09:24:20.999Z,25.70
2023-02-05T09:26:48.041Z,25.40
2023-02-05T09:29:14.969Z,24.67
2023-02-05T09:31:42.312Z,27.00
2023-02-05T09:34:09.218Z,26.50
2023-02-05T09:36:37.418Z,26.23
2023-02-05T09:39:16.884Z,26.63
2023-02-05T09:41:51.281Z,27.80
2023-02-05T09:45:00.550Z,26.13
2023-02-05T09:48:00.932Z,26.57
2023-02-05T09:50:30.360Z,28.37
2023-02-05T09:53:02.832Z,25.77
2023-02-05T09:55:34.034Z,28.10
2023-02-05T09:58:08.432Z,28.07
2023-02-05T10:00:48.752Z,26.63
2023-02-05T10:03:43.275Z,25.00
2023-02-05T10:06:23.918Z,27.47
2023-02-05T10:09:12.761Z,27.27
2023-02-05T10:11:52.438Z,24.63
2023-02-05T10:14:32.255Z,24.77
2023-02-05T10:17:30.360Z,24.43
2023-02-05T10:20:13.332Z,24.70
2023-02-05T10:22:57.497Z,25.43
2023-02-05T10:25:33.307Z,24.77
2023-02-05T10:28:03.242Z,25.47
2023-02-05T10:30:48.516Z,24.83
2023-02-05T10:33:19.084Z,23.90
2023-02-05T10:35:57.507Z,23.90
2023-02-05T10:38:27.458Z,23.10
2023-02-05T10:41:00.614Z,23.27
2023-02-05T10:43:34.292Z,22.33
2023-02-05T10:46:02.495Z,21.17
2023-02-05T10:48:58.037Z,23.57
2023-02-05T10:51:39.917Z,19.27
2023-02-05T10:54:35.726Z,17.07
2023-02-05T10:57:02.453Z,14.67
2023-02-05T10:59:36.289Z,20.20
2023-02-05T11:02:06.074Z,18.33
2023-02-05T11:04:46.890Z,18.57
2023-02-05T11:07:19.858Z,16.37
2023-02-05T11:09:46.636Z,16.43
2023-02-05T11:12:31.606Z,17.07
2023-02-05T11:15:01.025Z,15.80
2023-02-05T11:17:37.987Z,15.80
2023-02-05T11:20:22.301Z,15.87
2023-02-05T11:22:49.811Z,16.63
2023-02-05T11:25:31.415Z,16.73
2023-02-05T11:28:05.631Z,16.90
2023-02-05T11:30:50.922Z,12.83
2023-02-05T11:33:22.911Z,15.73
2023-02-05T11:36:02.686Z,15.10
2023-02-05T11:38:59.451Z,16.47
2023-02-05T11:41:48.033Z,15.17
2023-02-05T11:44:24.610Z,15.20
2023-02-05T11:46:56.928Z,15.73
2023-02-05T11:49:30.985Z,14.83
2023-02-05T11:51:58.445Z,15.03
2023-02-05T11:54:33.944Z,14.67
2023-02-05T11:57:08.119Z,15.43
2023-02-05T11:59:36.033Z,15.20
2023-02-05T12:02:29.940Z,15.80
2023-02-05T12:05:12.252Z,16.57
2023-02-05T12:08:16.430Z,15.80
2023-02-05T12:10:49.557Z,15.17
2023-02-05T12:13:19.443Z,15.90
2023-02-05T12:16:08.592Z,13.47
2023-02-05T12:18:44.456Z,15.13
2023-02-05T12:21:25.437Z,12.43
2023-02-05T12:24:10.889Z,11.80
2023-02-05T12:26:41.478Z,10.40
2023-02-05T12:29:41.958Z,11.03
2023-02-05T12:32:23.980Z,9.93
2023-02-05T12:35:21.880Z,10.13
2023-02-05T12:38:08.688Z,10.13
2023-02-05T12:40:40.238Z,9.90
2023-02-05T12:43:19.245Z,9.47
2023-02-05T12:45:57.985Z,9.60
2023-02-05T12:48:40.225Z,9.20
2023-02-05T12:51:42.176Z,9.73
2023-02-05T12:54:42.555Z,9.80
2023-02-05T12:57:13.248Z,10.77
2023-02-05T12:59:50.843Z,10.17
2023-02-05T13:02:37.022Z,9.80
2023-02-05T13:05:30.752Z,9.67
2023-02-05T13:08:13.706Z,9.60
2023-02-05T13:10:54.428Z,9.47
2023-02-05T13:13:30.693Z,9.90
2023-02-05T13:16:06.157Z,9.20
2023-02-05T13:18:45.792Z,9.97
2023-02-05T13:21:35.984Z,10.00
2023-02-05T13:24:53.937Z,9.60
2023-02-05T13:27:54.683Z,9.60
2023-02-05T13:30:42.245Z,10.70
2023-02-05T13:33:09.895Z,11.00
2023-02-05T13:36:16.584Z,10.90
2023-02-05T13:38:46.866Z,11.53
2023-02-05T13:41:31.913Z,11.20
2023-02-05T13:44:36.146Z,9.93
2023-02-05T13:47:02.816Z,11.00
2023-02-05T13:49:35.477Z,8.87
2023-02-05T13:52:08.014Z,9.60
2023-02-05T13:54:50.018Z,10.00
2023-02-05T13:57:54.851Z,10.70
2023-02-05T14:00:22.066Z,10.50
2023-02-05T14:02:49.445Z,10.87
2023-02-05T14:05:29.713Z,11.87
2023-02-05T14:08:01.957Z,9.97
2023-02-05T14:10:35.878Z,9.60
2023-02-05T14:13:23.954Z,10.10
2023-02-05T14:15:54.062Z,9.50
2023-02-05T14:18:39.936Z,9.53
2023-02-05T14:21:31.545Z,9.73
2023-02-05T14:24:18.453Z,9.50
2023-02-05T14:26:49.376Z,9.50
2023-02-05T14:29:38.075Z,11.17
2023-02-05T14:32:05.102Z,11.03
2023-02-05T14:34:34.805Z,9.73
2023-02-05T14:37:01.546Z,10.30
2023-02-05T14:39:33.551Z,12.80
2023-02-05T14:42:05.258Z,9.40
2023-02-05T14:44:35.216Z,9.10
2023-02-05T14:47:08.224Z,9.30
2023-02-05T14:49:34.850Z,9.40
2023-02-05T14:52:23.112Z,9.80
2023-02-05T14:55:37.203Z,8.90
2023-02-05T14:58:21.078Z,9.20
2023-02-05T15:00:47.734Z,9.00
2023-02-05T15:03:17.763Z,8.80
2023-02-05T15:05:44.359Z,9.43
2023-02-05T15:08:36.572Z,9.27
2023-02-05T15:11:22.203Z,9.30
2023-02-05T15:14:20.492Z,8.87
2023-02-05T15:17:06.178Z,8.93
2023-02-05T15:19:37.765Z,9.10
2023-02-05T15:22:05.485Z,9.20
2023-02-05T15:24:33.961Z,10.00
2023-02-05T15:27:15.934Z,8.90
2023-02-05T15:29:48.972Z,8.90
2023-02-05T15:32:33.272Z,10.33
2023-02-05T15:35:07.170Z,9.10
2023-02-05T15:37:45.154Z,8.70
2023-02-05T15:40:31.990Z,11.70
2023-02-05T15:43:14.963Z,8.33
2023-02-05T15:45:45.042Z,8.37
2023-02-05T15:48:17.086Z,7.90
2023-02-05T15:51:27.016Z,8.03
2023-02-05T15:53:57.050Z,7.80
2023-02-05T15:56:35.876Z,8.20
2023-02-05T15:59:11.393Z,8.53
2023-02-05T16:01:46.129Z,8.93
2023-02-05T16:04:26.898Z,7.87
2023-02-05T16:06:53.678Z,9.00
2023-02-05T16:09:22.502Z,8.83
2023-02-05T16:11:49.238Z,9.43
2023-02-05T16:14:22.020Z,9.40
2023-02-05T16:17:09.892Z,9.20
2023-02-05T16:19:44.106Z,8.50
2023-02-05T16:22:30.439Z,8.77
2023-02-05T16:25:01.317Z,9.60
2023-02-05T16:27:40.296Z,8.80
2023-02-05T16:30:35.132Z,9.10
2023-02-05T16:33:04.159Z,9.23
2023-02-05T16:35:39.109Z,8.87
2023-02-05T16:38:11.113Z,8.20
2023-02-05T16:40:44.269Z,8.60
2023-02-05T16:43:20.785Z,8.70
2023-02-05T16:46:06.500Z,8.73
2023-02-05T16:48:57.297Z,9.30
2023-02-05T16:51:45.001Z,8.90
2023-02-05T16:54:11.615Z,7.90
2023-02-05T16:56:58.119Z,8.30
2023-02-05T16:59:30.045Z,8.60
2023-02-05T17:01:59.225Z,8.80
2023-02-05T17:04:37.251Z,12.17
2023-02-05T17:07:14.858Z,12.37
2023-02-05T17:09:42.055Z,11.40
2023-02-05T17:12:24.658Z,8.70
2023-02-05T17:15:24.830Z,8.40
2023-02-05T17:18:18.228Z,8.30
2023-02-05T17:20:46.044Z,8.13
2023-02-05T17:23:15.452Z,8.20
2023-02-05T17:25:54.782Z,7.93
2023-02-05T17:28:26.618Z,8.50
2023-02-05T17:30:55.591Z,8.27
2023-02-05T17:33:24.397Z,8.27
2023-02-05T17:35:51.310Z,8.80
2023-02-05T17:38:23.580Z,9.50
2023-02-05T17:40:50.452Z,9.40
2023-02-05T17:43:17.084Z,9.40
2023-02-05T17:45:44.317Z,9.57
2023-02-05T17:48:11.526Z,10.13
2023-02-05T17:50:38.644Z,9.70
2023-02-05T17:53:05.541Z,9.80
2023-02-05T17:55:32.227Z,9.63
2023-02-05T17:57:59.109Z,9.80
2023-02-05T18:00:28.268Z,9.73
2023-02-05T18:02:55.122Z,10.00
2023-02-05T18:05:22.631Z,9.53
2023-02-05T18:07:55.015Z,8.80
2023-02-05T18:10:28.136Z,9.47
2023-02-05T18:12:56.048Z,10.00
2023-02-05T18:15:23.962Z,9.97
2023-02-05T18:17:50.970Z,9.97
2023-02-05T18:20:20.742Z,9.83
2023-02-05T18:22:48.253Z,9.90
2023-02-05T18:25:15.445Z,10.60
2023-02-05T18:27:42.254Z,9.40
2023-02-05T18:30:09.462Z,10.27
2023-02-05T18:32:36.103Z,9.90
2023-02-05T18:35:02.765Z,10.37
2023-02-05T18:37:29.535Z,10.47
2023-02-05T18:39:56.142Z,11.20
2023-02-05T18:42:23.161Z,10.67
2023-02-05T18:44:49.842Z,9.57
2023-02-05T18:47:16.467Z,9.60
2023-02-05T18:49:43.115Z,9.40
2023-02-05T18:52:11.850Z,9.30
2023-02-05T18:54:38.470Z,8.90
2023-02-05T18:57:05.241Z,8.70
2023-02-05T18:59:32.037Z,9.07
2023-02-05T19:01:58.757Z,8.70
2023-02-05T19:04:26.950Z,9.40
2023-02-05T19:06:54.528Z,9.70
2023-02-05T19:09:23.630Z,9.40
2023-02-05T19:11:51.765Z,9.80
2023-02-05T19:14:20.526Z,9.63
2023-02-05T19:16:48.289Z,9.90
2023-02-05T19:19:17.428Z,9.77
2023-02-05T19:21:48.939Z,10.07
2023-02-05T19:24:17.284Z,10.30
2023-02-05T19:26:44.641Z,10.80
2023-02-05T19:29:16.610Z,11.10
2023-02-05T19:31:44.322Z,10.90
2023-02-05T19:34:11.425Z,11.43
2023-02-05T19:36:38.571Z,10.90
2023-02-05T19:39:07.706Z,11.50
2023-02-05T19:41:35.865Z,11.03
2023-02-05T19:44:06.618Z,9.47
2023-02-05T19:46:36.730Z,10.37
2023-02-05T19:49:06.436Z,10.70
2023-02-05T19:51:34.610Z,10.00
2023-02-05T19:54:04.924Z,9.97
2023-02-05T19:56:32.469Z,10.60
2023-02-05T19:58:59.781Z,10.83
2023-02-05T20:01:31.924Z,11.10
2023-02-05T20:04:01.394Z,10.80
2023-02-05T20:06:29.373Z,11.37
2023-02-05T20:08:56.638Z,11.50
2023-02-05T20:11:23.518Z,11.03
2023-02-05T20:13:50.419Z,11.27
2023-02-05T20:16:20.248Z,11.30
2023-02-05T20:18:47.700Z,11.20
2023-02-05T20:21:16.572Z,11.67
2023-02-05T20:23:43.391Z,11.40
2023-02-05T20:26:10.531Z,11.37
2023-02-05T20:29:00.925Z,11.40
2023-02-05T20:31:35.320Z,12.00
2023-02-05T20:34:08.457Z,11.40
2023-02-05T20:36:35.914Z,10.47
2023-02-05T20:39:06.125Z,11.70
2023-02-05T20:41:33.653Z,11.37
2023-02-05T20:44:00.410Z,11.20
2023-02-05T20:46:27.185Z,11.40
2023-02-05T20:48:53.885Z,11.30
2023-02-05T20:51:22.756Z,12.23
2023-02-05T20:53:49.753Z,11.33
2023-02-05T20:56:19.323Z,11.63
2023-02-05T20:58:46.341Z,11.57
2023-02-05T21:01:18.828Z,11.27
2023-02-05T21:03:48.122Z,11.43
2023-02-05T21:06:15.558Z,10.17
2023-02-05T21:08:45.416Z,10.83
2023-02-05T21:11:15.461Z,10.70
2023-02-05T21:13:43.280Z,10.90
2023-02-05T21:16:11.139Z,10.83
2023-02-05T21:18:38.941Z,10.60
2023-02-05T21:21:13.375Z,11.23
2023-02-05T21:23:40.621Z,10.13
2023-02-05T21:26:08.474Z,10.77
2023-02-05T21:28:35.095Z,10.60
2023-02-05T21:31:07.645Z,10.30
2023-02-05T21:33:35.129Z,10.20
2023-02-05T21:36:07.085Z,10.67
2023-02-05T21:38:38.147Z,10.97
2023-02-05T21:41:11.662Z,10.83
2023-02-05T21:43:38.404Z,11.57
2023-02-05T21:46:07.020Z,10.90
2023-02-05T21:48:33.901Z,11.17
2023-02-05T21:51:05.884Z,10.83
2023-02-05T21:53:32.543Z,11.20
2023-02-05T21:56:05.200Z,11.30
2023-02-05T21:58:36.616Z,11.30
2023-02-05T22:01:15.373Z,11.33
2023-02-05T22:03:43.539Z,11.13
2023-02-05T22:06:10.490Z,10.30
2023-02-05T22:08:38.377Z,10.90
2023-02-05T22:11:07.820Z,10.00
2023-02-05T22:13:36.068Z,10.53
2023-02-05T22:16:08.873Z,10.10
2023-02-05T22:18:36.693Z,10.97
2023-02-05T22:21:13.428Z,10.60
2023-02-05T22:23:41.921Z,10.47
2023-02-05T22:26:09.369Z,10.77
2023-02-05T22:28:36.682Z,10.50
2023-02-05T22:31:09.148Z,11.10
2023-02-05T22:33:40.473Z,11.00
2023-02-05T22:36:09.465Z,11.10
2023-02-05T22:38:38.240Z,10.83
2023-02-05T22:41:10.207Z,10.50
2023-02-05T22:43:37.259Z,10.20
2023-02-05T22:46:05.932Z,10.60
2023-02-05T22:48:35.782Z,10.63
2023-02-05T22:51:08.565Z,11.07
2023-02-05T22:53:35.575Z,10.40
2023-02-05T22:56:04.428Z,10.67
2023-02-05T22:58:31.408Z,10.00
2023-02-05T23:00:59.034Z,10.33
2023-02-05T23:03:25.806Z,10.30
2023-02-05T23:05:52.963Z,10.83
2023-02-05T23:08:19.651Z,10.33
2023-02-05T23:10:46.289Z,10.67
2023-02-05T23:13:12.980Z,9.90
2023-02-05T23:15:39.671Z,10.27
2023-02-05T23:18:06.372Z,10.33
2023-02-05T23:20:33.110Z,10.27
2023-02-05T23:22:59.742Z,10.00
2023-02-05T23:25:26.472Z,9.57
2023-02-05T23:27:53.219Z,9.93
2023-02-05T23:30:19.953Z,9.33
2023-02-05T23:32:46.615Z,9.97
2023-02-05T23:35:13.264Z,10.03
2023-02-05T23:37:39.975Z,9.23
2023-02-05T23:40:07.136Z,9.70
2023-02-05T23:42:33.801Z,8.63
2023-02-05T23:45:00.522Z,9.50
2023-02-05T23:47:27.164Z,9.40
2023-02-05T23:49:53.791Z,9.83
2023-02-05T23:52:20.406Z,9.20
2023-02-05T23:54:47.005Z,9.20
2023-02-05T23:57:13.642Z,9.33
2023-02-05T23:59:40.279Z,9.23
